Time;durP1;ratioP1;P1;durP2;ratioP2;P2;SDS_P1;SDS_P2;PMS_P1;PMS_P2;Temp;Humidity;BMP_temperature;BMP_pressure;BME280_temperature;BME280_humidity;BME280_pressure;Samples;Min_cycle;Max_cycle;Signal;HPM_P1;HPM_P2
2021/03/23 00:00:34;;;;;;;4.90;1.75;;;3.50;99.90;;;;;;5033926;28;20104;-74
2021/03/23 00:03:01;;;;;;;1.55;1.45;;;3.30;99.90;;;;;;5013906;28;20041;-74
2021/03/23 00:05:27;;;;;;;0.50;0.50;;;3.20;99.90;;;;;;5033303;28;20018;-74
2021/03/23 00:07:53;;;;;;;0.77;0.70;;;3.10;99.90;;;;;;5033882;28;20436;-74
2021/03/23 00:10:23;;;;;;;2.53;2.17;;;3.10;99.90;;;;;;5032953;28;20057;-74
2021/03/23 00:12:50;;;;;;;3.78;2.83;;;3.20;99.90;;;;;;5034340;28;20463;-74
2021/03/23 00:15:16;;;;;;;;;;;3.20;99.90;;;;;;5029228;28;20076;-74
2021/03/23 00:17:42;;;;;;;1.05;0.95;;;3.20;99.90;;;;;;5027866;28;19952;-74
2021/03/23 00:20:11;;;;;;;7.73;1.47;;;3.00;99.90;;;;;;5034106;28;20348;-74
2021/03/23 00:22:37;;;;;;;8.70;1.27;;;3.10;99.90;;;;;;5033794;28;20025;-74
2021/03/23 00:25:05;;;;;;;3.45;2.83;;;3.30;99.90;;;;;;5034047;28;20056;-74
2021/03/23 00:27:31;;;;;;;4.63;1.65;;;3.30;99.90;;;;;;5016309;28;20037;-74
2021/03/23 00:29:56;;;;;;;6.28;2.10;;;3.40;99.90;;;;;;5016023;28;20038;-73
2021/03/23 00:32:22;;;;;;;1.65;1.55;;;3.40;99.90;;;;;;5033895;28;20022;-74
2021/03/23 00:34:48;;;;;;;1.03;0.70;;;3.50;99.90;;;;;;5016205;28;20029;-74
2021/03/23 00:37:14;;;;;;;1.83;1.03;;;3.50;99.90;;;;;;5031242;28;20032;-74
2021/03/23 00:39:40;;;;;;;10.98;1.00;;;3.50;99.90;;;;;;5023202;28;20033;-74
2021/03/23 00:42:06;;;;;;;4.97;1.48;;;3.50;99.90;;;;;;5033796;28;20427;-74
2021/03/23 00:44:33;;;;;;;1.63;1.37;;;3.50;99.90;;;;;;5031807;28;20029;-74
2021/03/23 00:46:59;;;;;;;;;;;3.60;99.90;;;;;;5034002;28;20037;-74
2021/03/23 00:49:24;;;;;;;1.13;1.03;;;3.60;99.90;;;;;;5032958;28;20011;-74
2021/03/23 00:51:51;;;;;;;0.53;0.53;;;3.60;99.90;;;;;;5016446;28;20026;-74
2021/03/23 00:54:17;;;;;;;3.95;0.70;;;3.60;99.90;;;;;;5032956;28;20109;-74
2021/03/23 00:56:43;;;;;;;4.00;2.23;;;3.70;99.90;;;;;;5012490;28;20116;-74
2021/03/23 00:59:08;;;;;;;0.70;0.70;;;3.80;99.90;;;;;;5014953;28;20043;-74
2021/03/23 01:01:34;;;;;;;2.37;1.10;;;3.80;99.90;;;;;;5014047;28;20037;-74
2021/03/23 01:04:00;;;;;;;1.83;1.67;;;3.90;99.90;;;;;;5033323;28;20037;-74
2021/03/23 01:06:25;;;;;;;18.13;1.73;;;3.90;99.90;;;;;;5033170;28;20036;-74
2021/03/23 01:08:51;;;;;;;6.63;1.67;;;3.90;99.90;;;;;;5015510;28;20052;-74
2021/03/23 01:11:17;;;;;;;4.55;1.85;;;3.90;99.90;;;;;;5033142;28;20392;-74
2021/03/23 01:13:42;;;;;;;2.33;2.13;;;3.90;99.90;;;;;;5032704;28;20033;-73
2021/03/23 01:16:08;;;;;;;3.63;1.30;;;3.90;99.90;;;;;;5033407;28;20038;-74
2021/03/23 01:18:35;;;;;;;1.00;1.00;;;3.90;99.90;;;;;;5028857;28;20429;-73
2021/03/23 01:21:01;;;;;;;1.25;0.85;;;4.00;99.90;;;;;;5032488;28;20033;-74
2021/03/23 01:23:26;;;;;;;2.20;1.67;;;4.00;99.90;;;;;;5033684;28;20362;-73
2021/03/23 01:25:52;;;;;;;2.80;1.40;;;4.00;99.90;;;;;;5015658;28;20412;-74
2021/03/23 01:28:18;;;;;;;3.73;1.83;;;4.00;99.90;;;;;;5023412;28;20420;-73
2021/03/23 01:30:44;;;;;;;1.63;1.40;;;4.00;99.90;;;;;;5012107;28;20180;-74
2021/03/23 01:33:09;;;;;;;1.60;1.50;;;4.00;99.90;;;;;;5033226;28;20030;-74
2021/03/23 01:35:35;;;;;;;1.67;1.47;;;4.00;99.90;;;;;;5015089;28;20069;-74
2021/03/23 01:38:01;;;;;;;1.27;1.17;;;4.10;99.90;;;;;;5026102;28;20439;-74
2021/03/23 01:40:28;;;;;;;1.02;0.82;;;4.10;99.90;;;;;;5032017;28;20450;-74
2021/03/23 01:42:57;;;;;;;0.70;0.70;;;4.10;99.90;;;;;;5033531;28;20022;-73
2021/03/23 01:45:39;;;;;;;2.15;1.45;;;4.20;99.90;;;;;;5016572;28;20111;-74
2021/03/23 01:48:18;;;;;;;6.40;2.10;;;4.20;99.90;;;;;;5031996;28;20034;-74
2021/03/23 01:51:06;;;;;;;1.60;1.48;;;4.20;99.90;;;;;;5002718;28;20033;-74
2021/03/23 01:53:36;;;;;;;2.40;1.60;;;4.30;99.90;;;;;;5033020;28;20038;-74
2021/03/23 01:56:03;;;;;;;4.25;1.38;;;4.30;99.90;;;;;;5029078;28;20435;-74
2021/03/23 01:58:29;;;;;;;0.98;0.80;;;4.40;99.90;;;;;;5030750;28;20025;-74
2021/03/23 02:00:55;;;;;;;1.67;1.53;;;4.30;99.90;;;;;;5011250;28;20425;-74
2021/03/23 02:03:22;;;;;;;5.00;1.40;;;4.40;99.90;;;;;;5036933;28;20059;-74
2021/03/23 02:05:59;;;;;;;6.55;3.45;;;4.40;99.90;;;;;;5036883;28;20018;-74
2021/03/23 02:08:26;;;;;;;2.15;1.58;;;4.40;99.90;;;;;;5013901;28;20037;-74
2021/03/23 02:10:52;;;;;;;;;;;4.50;99.90;;;;;;5034723;28;20168;-74
2021/03/23 02:13:18;;;;;;;2.55;1.83;;;4.50;99.90;;;;;;5037405;28;20063;-74
2021/03/23 02:15:44;;;;;;;1.48;1.38;;;4.50;99.90;;;;;;5036325;28;20075;-74
2021/03/23 02:18:25;;;;;;;3.30;2.40;;;4.50;99.90;;;;;;5031297;28;20112;-74
2021/03/23 02:21:10;;;;;;;0.85;0.75;;;4.60;99.90;;;;;;5033307;28;20095;-74
2021/03/23 02:23:42;;;;;;;3.05;1.80;;;4.50;99.90;;;;;;5012728;28;20129;-74
2021/03/23 02:26:11;;;;;;;3.58;2.00;;;4.50;99.90;;;;;;5033924;28;20017;-74
2021/03/23 02:28:54;;;;;;;1.67;1.58;;;4.50;99.90;;;;;;5032776;28;20060;-74
2021/03/23 02:31:38;;;;;;;2.85;1.75;;;4.50;99.90;;;;;;5035450;28;20333;-74
2021/03/23 02:34:08;;;;;;;2.03;1.13;;;4.50;99.90;;;;;;5036041;28;20021;-74
2021/03/23 02:36:35;;;;;;;1.60;1.50;;;4.50;99.90;;;;;;5036645;28;20025;-74
2021/03/23 02:39:01;;;;;;;;;;;4.50;99.90;;;;;;5031414;28;20026;-74
2021/03/23 02:41:28;;;;;;;2.97;1.40;;;4.50;99.90;;;;;;5036097;28;19909;-74
2021/03/23 02:43:54;;;;;;;6.15;2.72;;;4.50;99.90;;;;;;5009503;28;20030;-74
2021/03/23 02:46:20;;;;;;;2.97;1.47;;;4.50;99.90;;;;;;5017087;28;20075;-74
2021/03/23 02:48:46;;;;;;;1.90;1.70;;;4.50;99.90;;;;;;5033328;28;20324;-74
2021/03/23 02:51:13;;;;;;;2.30;1.85;;;4.50;99.90;;;;;;5027063;28;20022;-74
2021/03/23 02:53:43;;;;;;;1.40;1.30;;;4.50;99.90;;;;;;5035769;28;20045;-74
2021/03/23 02:56:08;;;;;;;7.85;2.70;;;4.50;99.90;;;;;;5015214;28;20113;-74
2021/03/23 02:58:34;;;;;;;6.35;2.50;;;4.50;99.90;;;;;;5035946;28;20383;-74
2021/03/23 03:01:00;;;;;;;4.50;2.73;;;4.50;99.90;;;;;;5034465;28;20033;-73
2021/03/23 03:03:25;;;;;;;7.35;2.30;;;4.50;99.90;;;;;;5018090;28;20060;-74
2021/03/23 03:05:52;;;;;;;1.57;1.17;;;4.50;99.90;;;;;;5042095;28;20057;-74
2021/03/23 03:08:18;;;;;;;3.13;1.83;;;4.50;99.90;;;;;;5015371;28;20323;-80
2021/03/23 03:10:44;;;;;;;4.13;1.90;;;4.40;99.90;;;;;;5004896;28;20026;-74
2021/03/23 03:13:09;;;;;;;2.22;1.88;;;4.40;99.90;;;;;;5004018;28;20767;-74
2021/03/23 03:15:35;;;;;;;2.30;1.47;;;4.40;99.90;;;;;;5014603;28;20056;-74
2021/03/23 03:18:01;;;;;;;3.42;2.65;;;4.40;99.90;;;;;;5035386;28;20316;-74
2021/03/23 03:20:27;;;;;;;3.58;2.05;;;4.40;99.90;;;;;;5013687;28;20349;-74
2021/03/23 03:22:53;;;;;;;5.10;3.90;;;4.40;99.90;;;;;;5018116;28;20048;-74
2021/03/23 03:25:21;;;;;;;4.72;3.05;;;4.40;99.90;;;;;;5035641;28;20411;-74
2021/03/23 03:27:46;;;;;;;4.93;1.67;;;4.30;99.90;;;;;;5017048;28;20044;-74
2021/03/23 03:30:33;;;;;;;5.93;2.08;;;4.30;99.90;;;;;;5034240;28;20432;-74
2021/03/23 03:32:59;;;;;;;;;;;4.30;99.90;;;;;;5016183;28;20029;-74
2021/03/23 03:35:31;;;;;;;4.00;3.50;;;4.20;99.90;;;;;;5017928;28;20117;-74
2021/03/23 03:37:57;;;;;;;3.50;2.78;;;4.20;99.90;;;;;;5034743;28;20087;-74
2021/03/23 03:40:26;;;;;;;5.00;3.35;;;4.10;99.90;;;;;;5022831;28;20025;-74
2021/03/23 03:42:52;;;;;;;3.92;3.13;;;4.10;99.90;;;;;;5030219;28;20096;-74
2021/03/23 03:45:20;;;;;;;3.53;2.85;;;4.10;99.90;;;;;;5017399;28;20045;-74
2021/03/23 03:47:51;;;;;;;4.35;3.50;;;4.10;99.90;;;;;;5034810;28;20439;-74
2021/03/23 03:50:18;;;;;;;10.50;5.55;;;4.10;99.90;;;;;;5025575;28;20018;-74
2021/03/23 03:52:44;;;;;;;11.00;3.33;;;4.20;99.90;;;;;;5017029;28;20064;-74
2021/03/23 03:55:12;;;;;;;3.13;2.40;;;4.20;99.90;;;;;;5016651;28;20053;-73
2021/03/23 03:57:38;;;;;;;5.03;2.70;;;4.20;99.90;;;;;;5012224;28;20328;-74
2021/03/23 04:00:05;;;;;;;6.57;4.17;;;4.10;99.90;;;;;;5020977;28;20038;-74
2021/03/23 04:02:31;;;;;;;;;;;4.10;99.90;;;;;;5017485;28;20143;-74
2021/03/23 04:04:56;;;;;;;4.80;2.77;;;4.00;99.90;;;;;;5016731;28;19917;-74
2021/03/23 04:07:22;;;;;;;3.30;2.50;;;4.00;99.90;;;;;;5011250;28;20311;-74
2021/03/23 04:09:48;;;;;;;4.43;2.80;;;3.90;99.90;;;;;;5026671;28;20026;-74
2021/03/23 04:12:14;;;;;;;5.27;3.63;;;3.90;99.90;;;;;;5030547;28;20026;-74
2021/03/23 04:14:39;;;;;;;6.27;3.60;;;3.90;99.90;;;;;;5034599;28;20034;-73
2021/03/23 04:17:06;;;;;;;9.05;3.92;;;3.90;99.90;;;;;;5031017;28;20025;-74
2021/03/23 04:19:31;;;;;;;5.53;3.35;;;3.90;99.90;;;;;;5028927;28;20104;-74
2021/03/23 04:21:57;;;;;;;4.17;2.87;;;3.90;99.90;;;;;;5028868;28;20364;-74
2021/03/23 04:24:23;;;;;;;5.53;3.03;;;3.90;99.90;;;;;;5025687;28;20512;-74
2021/03/23 04:26:49;;;;;;;5.85;4.28;;;3.90;99.90;;;;;;5014538;28;20029;-74
2021/03/23 04:29:15;;;;;;;2.85;2.58;;;3.90;99.90;;;;;;5019109;28;20041;-73
2021/03/23 04:31:43;;;;;;;15.03;4.83;;;3.90;99.90;;;;;;5029032;28;20038;-74
2021/03/23 04:34:10;;;;;;;4.00;3.50;;;3.90;99.90;;;;;;5008298;28;20047;-74
2021/03/23 04:36:36;;;;;;;5.63;3.40;;;3.90;99.90;;;;;;5030592;28;20072;-74
2021/03/23 04:39:05;;;;;;;1.92;1.77;;;3.90;99.90;;;;;;5012875;28;20029;-74
2021/03/23 04:41:31;;;;;;;5.50;3.88;;;4.00;99.90;;;;;;5007668;28;20037;-74
2021/03/23 04:43:56;;;;;;;2.85;2.35;;;4.00;99.90;;;;;;5009584;28;20033;-74
2021/03/23 04:46:26;;;;;;;3.43;3.13;;;4.00;99.90;;;;;;5013065;28;20109;-74
2021/03/23 04:48:53;;;;;;;7.00;3.47;;;4.00;99.90;;;;;;5033400;28;20047;-74
2021/03/23 04:51:20;;;;;;;6.53;3.05;;;4.10;99.90;;;;;;5026065;28;20017;-73
2021/03/23 04:53:46;;;;;;;13.65;3.35;;;4.10;99.90;;;;;;5033540;28;20037;-74
2021/03/23 04:56:25;;;;;;;5.15;2.72;;;4.10;99.90;;;;;;5013709;28;20327;-74
2021/03/23 04:58:51;;;;;;;3.28;2.47;;;4.20;99.90;;;;;;5033175;28;20459;-74
2021/03/23 05:01:17;;;;;;;4.03;3.33;;;4.20;99.90;;;;;;5034158;28;20026;-74
2021/03/23 05:03:43;;;;;;;4.30;3.63;;;4.20;99.90;;;;;;5036958;28;20305;-75
2021/03/23 05:06:09;;;;;;;10.48;2.47;;;4.20;99.90;;;;;;5040163;28;20017;-74
2021/03/23 05:08:37;;;;;;;2.40;2.20;;;4.20;99.90;;;;;;5019990;28;20036;-74
2021/03/23 05:11:05;;;;;;;5.43;3.75;;;4.20;99.90;;;;;;5031645;28;20424;-74
2021/03/23 05:13:31;;;;;;;7.47;4.00;;;4.10;99.90;;;;;;5031178;28;20037;-74
2021/03/23 05:15:56;;;;;;;4.67;3.23;;;4.10;99.90;;;;;;5033130;28;20040;-74
2021/03/23 05:18:22;;;;;;;5.50;2.83;;;4.10;99.90;;;;;;5028425;28;20025;-74
2021/03/23 05:20:48;;;;;;;6.80;4.53;;;4.00;99.90;;;;;;5011721;28;20030;-74
2021/03/23 05:23:15;;;;;;;9.20;4.95;;;4.10;99.90;;;;;;5012067;28;20049;-74
2021/03/23 05:25:42;;;;;;;3.42;2.83;;;4.10;99.90;;;;;;5006315;28;20367;-74
2021/03/23 05:28:09;;;;;;;3.95;2.95;;;4.10;99.90;;;;;;5028622;28;20021;-74
2021/03/23 05:30:34;;;;;;;;;;;4.10;99.90;;;;;;5033378;28;20091;-75
2021/03/23 05:33:00;;;;;;;14.47;5.77;;;4.20;99.90;;;;;;5029086;28;20308;-74
2021/03/23 05:35:26;;;;;;;3.43;3.10;;;4.20;99.90;;;;;;5015909;28;20708;-75
2021/03/23 05:37:52;;;;;;;7.68;3.55;;;4.20;99.90;;;;;;5035693;28;20018;-74
2021/03/23 05:40:40;;;;;;;8.85;5.05;;;4.30;99.90;;;;;;5032878;28;20025;-75
2021/03/23 05:43:31;;;;;;;7.40;4.07;;;4.30;99.90;;;;;;5032416;28;20025;-74
2021/03/23 05:46:10;;;;;;;7.72;4.25;;;4.30;99.90;;;;;;4968359;28;20043;-75
2021/03/23 05:48:38;;;;;;;7.55;3.40;;;4.30;99.90;;;;;;4973766;28;20104;-75
2021/03/23 05:51:09;;;;;;;12.25;5.10;;;4.40;99.90;;;;;;4972509;28;20061;-74
2021/03/23 05:53:43;;;;;;;8.25;4.47;;;4.40;99.90;;;;;;4967274;28;20037;-74
2021/03/23 05:56:10;;;;;;;8.02;4.65;;;4.40;99.90;;;;;;4979700;28;20146;-74
2021/03/23 05:58:41;;;;;;;6.70;4.60;;;4.40;99.90;;;;;;4983821;28;20185;-75
2021/03/23 06:01:19;;;;;;;6.18;3.65;;;4.50;99.90;;;;;;4974348;28;20453;-74
2021/03/23 06:03:54;;;;;;;8.45;5.13;;;4.50;99.90;;;;;;4972062;28;20042;-74
2021/03/23 06:06:26;;;;;;;9.50;5.43;;;4.50;99.90;;;;;;4967589;28;20122;-76
2021/03/23 06:08:52;;;;;;;14.80;5.88;;;4.60;99.90;;;;;;4972161;28;20473;-75
2021/03/23 06:11:17;;;;;;;8.70;4.72;;;4.60;99.90;;;;;;4959462;28;20019;-75
2021/03/23 06:13:49;;;;;;;16.00;6.20;;;4.70;99.90;;;;;;4959478;28;20121;-74
2021/03/23 06:16:37;;;;;;;16.67;5.97;;;4.70;99.90;;;;;;4973682;28;20050;-76
2021/03/23 06:19:23;;;;;;;8.68;5.22;;;4.70;99.90;;;;;;4977121;28;20031;-74
2021/03/23 06:21:55;;;;;;;6.88;4.43;;;4.80;99.90;;;;;;4960890;28;20026;-74
2021/03/23 06:24:23;;;;;;;9.93;6.85;;;4.80;99.90;;;;;;5015417;28;20219;-75
2021/03/23 06:27:08;;;;;;;13.18;5.70;;;4.90;99.90;;;;;;5035541;28;20039;-75
2021/03/23 06:29:42;;;;;;;9.20;6.40;;;4.90;99.90;;;;;;5032270;28;20099;-75
2021/03/23 06:32:25;;;;;;;11.18;6.72;;;4.90;99.90;;;;;;5025710;28;20038;-74
2021/03/23 06:34:56;;;;;;;14.75;9.18;;;5.00;99.90;;;;;;5008111;28;20040;-74
2021/03/23 06:37:31;;;;;;;11.68;7.15;;;5.00;99.90;;;;;;5016103;28;20026;-75
2021/03/23 06:39:58;;;;;;;15.05;7.05;;;5.10;99.90;;;;;;5017624;28;20116;-74
2021/03/23 06:42:42;;;;;;;11.55;8.45;;;5.10;99.90;;;;;;5026239;28;20035;-75
2021/03/23 06:45:30;;;;;;;10.15;5.70;;;5.10;99.90;;;;;;5034298;28;20087;-75
2021/03/23 06:48:18;;;;;;;25.05;10.25;;;5.20;99.90;;;;;;5016541;28;20041;-75
2021/03/23 06:50:45;;;;;;;10.70;6.30;;;5.20;99.90;;;;;;5006822;28;20068;-74
2021/03/23 06:53:16;;;;;;;18.88;8.63;;;5.20;99.90;;;;;;5035034;28;20033;-74
2021/03/23 06:55:45;;;;;;;15.15;6.75;;;5.20;99.90;;;;;;5036204;28;20021;-75
2021/03/23 06:58:26;;;;;;;15.48;8.15;;;5.20;99.90;;;;;;5016995;28;20021;-75
2021/03/23 07:01:15;;;;;;;26.85;9.50;;;5.30;99.90;;;;;;5035800;28;20032;-75
2021/03/23 07:03:46;;;;;;;22.30;7.18;;;5.30;99.90;;;;;;5001337;28;20101;-75
2021/03/23 07:06:26;;;;;;;12.13;8.63;;;5.30;99.90;;;;;;5012631;28;20160;-74
2021/03/23 07:09:10;;;;;;;12.02;6.95;;;5.40;99.90;;;;;;5033081;28;20471;-74
2021/03/23 07:11:56;;;;;;;10.38;7.78;;;5.40;99.90;;;;;;5017492;28;20029;-75
2021/03/23 07:14:26;;;;;;;18.58;7.35;;;5.50;99.90;;;;;;5028705;28;20025;-75
2021/03/23 07:17:01;;;;;;;11.68;5.90;;;5.50;99.90;;;;;;5015074;28;20148;-75
2021/03/23 07:19:27;;;;;;;17.92;7.32;;;5.60;99.90;;;;;;5034774;28;20294;-75
2021/03/23 07:22:06;;;;;;;15.25;8.30;;;5.70;99.90;;;;;;5029190;28;20084;-75
2021/03/23 07:24:33;;;;;;;12.52;7.45;;;5.70;99.90;;;;;;5014182;28;20425;-75
2021/03/23 07:27:04;;;;;;;16.05;8.35;;;5.80;99.90;;;;;;5016311;28;20060;-76
2021/03/23 07:29:37;;;;;;;16.05;8.57;;;5.90;99.90;;;;;;5015203;28;20080;-75
2021/03/23 07:32:07;;;;;;;14.60;8.05;;;5.90;99.90;;;;;;5034323;28;20395;-77
2021/03/23 07:34:55;;;;;;;9.75;5.35;;;6.00;99.90;;;;;;5017258;28;20029;-75
2021/03/23 07:37:36;;;;;;;14.43;8.07;;;6.10;99.90;;;;;;5034090;28;20093;-74
2021/03/23 07:40:12;;;;;;;15.75;7.47;;;6.20;99.90;;;;;;5032524;28;20021;-75
2021/03/23 07:42:41;;;;;;;14.00;7.88;;;6.20;99.90;;;;;;5015928;28;20408;-74
2021/03/23 07:45:07;;;;;;;12.02;7.15;;;6.30;99.90;;;;;;5034144;28;20387;-74
2021/03/23 07:47:46;;;;;;;26.07;9.87;;;6.30;99.90;;;;;;5033910;28;20029;-76
2021/03/23 07:50:23;;;;;;;25.17;8.43;;;6.30;99.90;;;;;;5034641;28;20099;-75
2021/03/23 07:52:58;;;;;;;17.42;8.40;;;6.40;99.90;;;;;;5034102;28;20033;-75
2021/03/23 07:55:26;;;;;;;23.65;9.85;;;6.40;99.90;;;;;;5013625;28;20049;-75
2021/03/23 07:57:57;;;;;;;24.02;10.15;;;6.40;99.90;;;;;;5034263;28;20053;-75
2021/03/23 08:00:44;;;;;;;11.32;7.47;;;6.40;99.90;;;;;;5017618;28;20022;-74
2021/03/23 08:03:28;;;;;;;9.35;6.45;;;6.40;99.90;;;;;;5015267;28;20127;-75
2021/03/23 08:06:38;;;;;;;24.05;10.75;;;6.30;99.90;;;;;;5004313;28;20026;-75
2021/03/23 08:09:19;;;;;;;18.60;9.15;;;6.40;99.90;;;;;;5021928;28;20042;-75
2021/03/23 08:12:13;;;;;;;17.20;8.95;;;6.40;99.90;;;;;;5031301;28;20427;-75
2021/03/23 08:14:51;;;;;;;19.73;8.20;;;6.40;99.90;;;;;;5024287;28;20025;-76
2021/03/23 08:17:59;;;;;;;14.15;8.07;;;6.50;99.90;;;;;;5033021;28;20026;-74
2021/03/23 08:20:54;;;;;;;13.68;6.78;;;6.50;99.90;;;;;;5015659;28;20053;-76
2021/03/23 08:23:57;;;;;;;17.75;9.88;;;6.60;99.90;;;;;;5032385;28;20029;-74
2021/03/23 08:26:52;;;;;;;14.57;8.65;;;6.70;99.90;;;;;;5032872;28;20017;-75
2021/03/23 08:29:31;;;;;;;13.95;7.85;;;6.90;99.90;;;;;;4962348;28;20035;-76
2021/03/23 08:32:05;;;;;;;14.15;8.07;;;7.00;99.90;;;;;;5014042;28;20021;-74
2021/03/23 08:34:46;;;;;;;15.90;6.80;;;7.10;99.90;;;;;;5031521;28;20033;-75
2021/03/23 08:37:36;;;;;;;19.38;9.10;;;7.10;99.90;;;;;;5002455;28;20121;-77
2021/03/23 08:40:06;;;;;;;20.08;9.32;;;7.20;99.90;;;;;;5023647;28;20328;-76
2021/03/23 08:42:33;;;;;;;16.15;6.90;;;7.30;99.90;;;;;;5027815;28;20113;-75
2021/03/23 08:45:03;;;;;;;22.58;10.80;;;7.30;99.90;;;;;;5033336;28;20022;-75
2021/03/23 08:47:32;;;;;;;18.23;9.38;;;7.40;99.90;;;;;;5001910;28;20457;-76
2021/03/23 08:50:05;;;;;;;26.65;11.45;;;7.40;99.90;;;;;;5032108;28;20049;-75
2021/03/23 08:52:30;;;;;;;18.52;9.27;;;7.40;99.90;;;;;;5015581;28;20061;-77
2021/03/23 08:54:58;;;;;;;16.67;9.40;;;7.50;99.90;;;;;;5008213;28;20111;-76
2021/03/23 08:57:24;;;;;;;8.43;7.07;;;7.60;99.90;;;;;;5016292;28;20025;-76
2021/03/23 08:59:53;;;;;;;18.05;9.57;;;7.60;99.90;;;;;;5030520;28;20029;-79
2021/03/23 09:02:18;;;;;;;16.02;8.93;;;7.70;99.90;;;;;;5030324;28;20033;-75
2021/03/23 09:04:50;;;;;;;17.33;9.10;;;7.80;99.90;;;;;;5021358;28;20036;-76
2021/03/23 09:07:16;;;;;;;21.50;7.88;;;7.90;99.90;;;;;;5007953;28;20017;-76
2021/03/23 09:09:48;;;;;;;15.43;8.80;;;7.90;99.90;;;;;;5025615;28;20324;-75
2021/03/23 09:12:42;;;;;;;24.73;8.98;;;8.00;99.90;;;;;;5035499;28;20024;-76
2021/03/23 09:15:23;;;;;;;11.98;7.93;;;8.20;99.90;;;;;;5035025;28;20033;-75
2021/03/23 09:17:58;;;;;;;14.68;6.97;;;8.40;99.90;;;;;;5037759;28;20035;-75
2021/03/23 09:20:34;;;;;;;16.80;6.70;;;8.60;99.90;;;;;;5038316;28;20021;-78
2021/03/23 09:23:15;;;;;;;19.35;8.82;;;8.70;99.90;;;;;;5020281;28;20599;-75
2021/03/23 09:26:05;;;;;;;20.67;9.35;;;8.80;99.90;;;;;;5034027;28;20079;-76
2021/03/23 09:31:05;;;;;;;17.77;8.45;;;8.70;99.90;;;;;;5036893;28;20037;-77
2021/03/23 09:33:30;;;;;;;20.15;10.13;;;8.70;99.90;;;;;;5019557;28;20079;-76
2021/03/23 09:38:36;;;;;;;23.38;8.10;;;8.80;99.90;;;;;;5029973;28;20092;-75
2021/03/23 09:41:05;;;;;;;25.25;9.82;;;9.00;99.90;;;;;;5018449;28;20317;-75
2021/03/23 09:43:36;;;;;;;20.27;7.32;;;9.20;99.90;;;;;;5039436;28;20084;-75
2021/03/23 09:46:13;;;;;;;14.57;7.68;;;9.40;99.90;;;;;;5038224;28;20021;-75
2021/03/23 09:48:47;;;;;;;13.48;9.20;;;9.50;99.90;;;;;;5020888;28;20021;-75
2021/03/23 09:51:22;;;;;;;16.23;6.43;;;9.60;99.90;;;;;;5018112;28;20033;-75
2021/03/23 09:53:48;;;;;;;15.52;9.52;;;9.70;99.90;;;;;;5014978;28;20025;-75
2021/03/23 09:56:25;;;;;;;12.55;7.57;;;9.80;99.90;;;;;;5021108;28;20028;-76
2021/03/23 09:59:04;;;;;;;12.50;5.22;;;9.80;99.90;;;;;;5021247;28;20393;-74
2021/03/23 10:01:32;;;;;;;11.27;7.93;;;9.60;99.90;;;;;;5038208;28;20029;-76
2021/03/23 10:04:02;;;;;;;11.73;6.95;;;9.70;99.90;;;;;;5039034;28;20029;-75
2021/03/23 10:06:43;;;;;;;18.83;6.18;;;9.60;99.90;;;;;;5016835;28;20681;-76
2021/03/23 10:09:09;;;;;;;13.02;6.35;;;9.70;99.90;;;;;;5017247;28;20104;-75
2021/03/23 10:11:42;;;;;;;12.98;6.85;;;9.90;99.90;;;;;;5030196;28;20026;-76
2021/03/23 10:14:12;;;;;;;12.80;6.53;;;10.00;99.90;;;;;;5020513;28;20323;-74
2021/03/23 10:16:42;;;;;;;9.95;6.82;;;10.00;99.90;;;;;;5038959;28;20025;-76
2021/03/23 10:19:21;;;;;;;10.27;4.57;;;10.20;99.90;;;;;;5019542;28;20112;-76
2021/03/23 10:21:51;;;;;;;10.95;5.78;;;10.30;99.90;;;;;;5038119;28;20056;-75
2021/03/23 10:24:22;;;;;;;12.93;6.28;;;10.30;99.90;;;;;;5017158;28;20372;-76
2021/03/23 10:26:50;;;;;;;12.55;5.18;;;10.40;99.90;;;;;;5034976;28;20017;-75
2021/03/23 10:29:28;;;;;;;11.32;6.20;;;10.50;99.90;;;;;;5017058;28;20661;-75
2021/03/23 10:31:57;;;;;;;10.07;6.05;;;10.60;99.90;;;;;;5029636;28;20037;-76
2021/03/23 10:34:28;;;;;;;9.98;5.93;;;10.60;99.90;;;;;;5018071;28;20272;-75
2021/03/23 10:37:03;;;;;;;12.43;4.93;;;10.70;99.90;;;;;;5035193;28;20120;-75
2021/03/23 10:39:42;;;;;;;21.55;6.18;;;10.90;99.90;;;;;;5029765;28;20037;-74
2021/03/23 10:42:24;;;;;;;19.80;5.82;;;11.00;99.90;;;;;;5030085;28;20036;-75
2021/03/23 10:44:52;;;;;;;13.18;6.45;;;11.10;99.90;;;;;;5015469;28;20683;-73
2021/03/23 10:47:38;;;;;;;17.92;6.95;;;11.10;99.90;;;;;;5018113;28;20308;-74
2021/03/23 10:50:22;;;;;;;17.98;6.25;;;11.20;99.90;;;;;;5017989;28;20021;-74
2021/03/23 10:52:49;;;;;;;20.70;6.57;;;11.10;99.90;;;;;;5025282;28;20043;-74
2021/03/23 10:55:15;;;;;;;9.77;5.75;;;11.00;99.90;;;;;;5013969;28;20592;-74
2021/03/23 10:57:41;;;;;;;13.37;7.23;;;11.20;99.90;;;;;;5010466;28;20416;-74
2021/03/23 11:00:18;;;;;;;10.43;5.43;;;11.30;99.90;;;;;;5033758;28;20147;-75
2021/03/23 11:02:44;;;;;;;12.00;6.70;;;11.40;99.90;;;;;;5035674;28;20052;-74
2021/03/23 11:05:13;;;;;;;12.53;7.67;;;11.40;99.90;;;;;;5035165;28;20714;-74
2021/03/23 11:07:51;;;;;;;10.48;6.78;;;11.40;99.90;;;;;;5034579;28;20060;-75
2021/03/23 11:10:21;;;;;;;9.02;5.45;;;11.40;99.90;;;;;;5015694;28;20029;-74
2021/03/23 11:12:47;;;;;;;11.45;6.38;;;11.40;99.90;;;;;;5013222;28;20277;-74
2021/03/23 11:15:14;;;;;;;14.80;7.30;;;11.50;99.90;;;;;;5016105;28;20030;-73
2021/03/23 11:17:46;;;;;;;;;;;11.50;99.90;;;;;;5032524;28;20040;-74
2021/03/23 11:20:21;;;;;;;12.35;6.68;;;11.40;99.90;;;;;;5016521;28;19913;-74
2021/03/23 11:22:50;;;;;;;9.77;6.10;;;11.50;99.90;;;;;;5016326;28;20030;-74
2021/03/23 11:25:22;;;;;;;12.75;7.32;;;11.60;99.90;;;;;;5017594;28;20112;-75
2021/03/23 11:27:47;;;;;;;7.80;5.20;;;11.60;99.90;;;;;;5033733;28;20033;-75
2021/03/23 11:30:14;;;;;;;9.17;4.67;;;11.70;99.90;;;;;;5016143;28;20041;-75
2021/03/23 11:32:40;;;;;;;10.88;5.85;;;11.70;99.90;;;;;;5033893;28;20029;-74
2021/03/23 11:35:07;;;;;;;12.73;7.80;;;11.70;99.90;;;;;;5034090;28;20112;-74
2021/03/23 11:37:33;;;;;;;18.65;6.72;;;11.60;99.90;;;;;;5016146;28;20041;-74
2021/03/23 11:39:58;;;;;;;13.63;7.10;;;11.40;99.90;;;;;;5023601;28;20033;-74
2021/03/23 11:42:45;;;;;;;8.45;5.65;;;11.30;99.90;;;;;;5032889;28;20029;-75
2021/03/23 11:45:26;;;;;;;12.85;6.43;;;11.20;99.90;;;;;;5011926;28;20036;-73
2021/03/23 11:48:03;;;;;;;14.15;6.90;;;11.20;99.90;;;;;;5032924;28;20026;-74
2021/03/23 11:50:32;;;;;;;10.90;5.63;;;11.10;99.90;;;;;;5011619;28;20021;-73
2021/03/23 11:52:58;;;;;;;10.00;5.97;;;11.10;99.90;;;;;;5033731;28;20124;-74
2021/03/23 11:55:31;;;;;;;10.02;6.70;;;11.10;99.90;;;;;;5014107;28;20026;-74
2021/03/23 11:57:58;;;;;;;8.38;5.55;;;11.20;99.90;;;;;;5011051;28;20040;-75
2021/03/23 12:00:27;;;;;;;12.60;6.15;;;11.10;99.90;;;;;;5031129;28;20100;-75
2021/03/23 12:02:53;;;;;;;8.82;4.32;;;11.20;99.90;;;;;;5031019;28;20336;-74
2021/03/23 12:05:20;;;;;;;8.93;6.17;;;11.30;99.90;;;;;;5032669;28;20013;-75
2021/03/23 12:08:16;;;;;;;16.17;5.18;;;11.30;99.90;;;;;;5015645;28;20424;-74
2021/03/23 12:11:02;;;;;;;;;;;11.30;99.90;;;;;;5015946;28;20080;-74
2021/03/23 12:13:37;;;;;;;;;;;11.30;99.90;;;;;;4966684;28;19913;-74
2021/03/23 12:16:26;;;;;;;13.07;5.80;;;11.30;99.90;;;;;;5014590;28;20197;-74
2021/03/23 12:19:05;;;;;;;13.30;6.13;;;11.40;99.90;;;;;;5013328;28;20029;-74
2021/03/23 12:21:32;;;;;;;12.95;6.72;;;11.50;99.90;;;;;;5031892;28;20079;-75
2021/03/23 12:23:57;;;;;;;14.68;6.43;;;11.50;99.90;;;;;;5013991;28;20037;-75
2021/03/23 12:26:24;;;;;;;15.77;6.17;;;11.60;99.90;;;;;;5014734;28;20297;-74
2021/03/23 12:28:50;;;;;;;8.52;5.00;;;11.70;99.90;;;;;;5033397;28;20064;-75
2021/03/23 12:31:16;;;;;;;14.80;6.33;;;11.70;99.90;;;;;;5014834;28;20049;-75
2021/03/23 12:33:42;;;;;;;14.75;4.97;;;11.70;99.90;;;;;;5033110;28;20022;-74
2021/03/23 12:36:10;;;;;;;9.82;5.25;;;11.90;99.90;;;;;;5014933;28;20466;-74
2021/03/23 12:38:38;;;;;;;13.00;5.65;;;12.10;99.90;;;;;;5032919;28;20116;-73
2021/03/23 12:41:05;;;;;;;10.57;5.38;;;12.20;99.90;;;;;;5029013;28;20033;-75
2021/03/23 12:43:31;;;;;;;6.03;3.60;;;12.40;99.90;;;;;;5014522;28;20037;-75
2021/03/23 12:45:58;;;;;;;10.97;5.20;;;12.30;99.90;;;;;;5031865;28;20302;-74
2021/03/23 12:48:24;;;;;;;8.23;4.97;;;12.30;99.90;;;;;;5015306;28;20014;-74
2021/03/23 12:50:52;;;;;;;10.57;4.13;;;12.30;99.90;;;;;;5028004;28;20022;-74
2021/03/23 12:53:19;;;;;;;9.32;4.72;;;12.30;99.90;;;;;;5030680;28;20102;-75
2021/03/23 12:55:50;;;;;;;10.70;5.60;;;12.20;99.90;;;;;;5008257;28;20433;-74
2021/03/23 12:58:19;;;;;;;11.35;4.95;;;12.10;99.90;;;;;;5033392;28;20090;-74
2021/03/23 13:00:45;;;;;;;8.23;6.63;;;11.90;99.90;;;;;;5015467;28;20132;-75
2021/03/23 13:03:16;;;;;;;14.43;8.83;;;11.80;99.90;;;;;;5033850;28;20155;-74
2021/03/23 13:05:43;;;;;;;8.27;5.07;;;11.70;99.90;;;;;;5007111;28;20036;-74
2021/03/23 13:08:23;;;;;;;9.90;5.82;;;11.40;99.90;;;;;;5033651;28;20029;-74
2021/03/23 13:10:51;;;;;;;13.57;6.18;;;11.40;99.90;;;;;;5013605;28;20025;-75
2021/03/23 13:13:23;;;;;;;10.60;5.60;;;11.50;99.90;;;;;;5012302;28;20108;-74
2021/03/23 13:15:49;;;;;;;19.02;6.25;;;11.40;99.90;;;;;;5032531;28;20104;-74
2021/03/23 13:18:17;;;;;;;13.07;6.30;;;11.40;99.90;;;;;;5033550;28;20025;-74